sensor_id;sensor_type;location;lat;lon;timestamp;P1;durP1;ratioP1;P2;durP2;ratioP2
6354;SDS011;3210;48.708;9.030;2023-08-20T00:01:27;10.30;;;6.73;;
6354;SDS011;3210;48.708;9.030;2023-08-20T00:03:54;8.07;;;7.27;;
6354;SDS011;3210;48.708;9.030;2023-08-20T00:06:22;13.60;;;7.40;;
6354;SDS011;3210;48.708;9.030;2023-08-20T00:08:49;8.33;;;7.53;;
6354;SDS011;3210;48.708;9.030;2023-08-20T00:11:16;11.43;;;8.07;;
6354;SDS011;3210;48.708;9.030;2023-08-20T00:13:43;12.63;;;8.47;;
6354;SDS011;3210;48.708;9.030;2023-08-20T00:16:12;11.93;;;7.90;;
6354;SDS011;3210;48.708;9.030;2023-08-20T00:18:39;13.07;;;7.13;;
6354;SDS011;3210;48.708;9.030;2023-08-20T00:21:07;13.37;;;7.93;;
6354;SDS011;3210;48.708;9.030;2023-08-20T00:23:34;8.20;;;7.40;;
6354;SDS011;3210;48.708;9.030;2023-08-20T00:26:01;7.87;;;7.07;;
6354;SDS011;3210;48.708;9.030;2023-08-20T00:28:28;20.43;;;7.87;;
6354;SDS011;3210;48.708;9.030;2023-08-20T00:30:55;15.93;;;7.50;;
6354;SDS011;3210;48.708;9.030;2023-08-20T00:33:24;12.47;;;7.80;;
6354;SDS011;3210;48.708;9.030;2023-08-20T00:35:50;12.23;;;7.10;;
6354;SDS011;3210;48.708;9.030;2023-08-20T00:38:17;8.57;;;7.23;;
6354;SDS011;3210;48.708;9.030;2023-08-20T00:40:44;18.70;;;7.70;;
6354;SDS011;3210;48.708;9.030;2023-08-20T00:43:11;11.17;;;7.17;;
6354;SDS011;3210;48.708;9.030;2023-08-20T00:45:37;11.40;;;8.70;;
6354;SDS011;3210;48.708;9.030;2023-08-20T00:48:06;23.63;;;8.80;;
6354;SDS011;3210;48.708;9.030;2023-08-20T00:50:34;8.93;;;7.30;;
6354;SDS011;3210;48.708;9.030;2023-08-20T00:53:01;9.27;;;7.50;;
6354;SDS011;3210;48.708;9.030;2023-08-20T00:55:29;12.17;;;9.13;;
6354;SDS011;3210;48.708;9.030;2023-08-20T00:57:56;8.10;;;7.40;;
6354;SDS011;3210;48.708;9.030;2023-08-20T01:00:24;13.20;;;7.77;;
6354;SDS011;3210;48.708;9.030;2023-08-20T01:02:50;11.07;;;7.33;;
6354;SDS011;3210;48.708;9.030;2023-08-20T01:05:17;10.20;;;8.53;;
6354;SDS011;3210;48.708;9.030;2023-08-20T01:10:40;10.00;;;9.00;;
6354;SDS011;3210;48.708;9.030;2023-08-20T01:13:14;9.33;;;8.23;;
6354;SDS011;3210;48.708;9.030;2023-08-20T01:15:42;10.10;;;7.40;;
6354;SDS011;3210;48.708;9.030;2023-08-20T01:18:08;10.33;;;8.30;;
6354;SDS011;3210;48.708;9.030;2023-08-20T01:20:36;10.93;;;8.50;;
6354;SDS011;3210;48.708;9.030;2023-08-20T01:26:21;10.10;;;7.67;;
6354;SDS011;3210;48.708;9.030;2023-08-20T01:29:00;11.50;;;7.70;;
6354;SDS011;3210;48.708;9.030;2023-08-20T01:31:28;13.90;;;9.30;;
6354;SDS011;3210;48.708;9.030;2023-08-20T01:33:56;8.50;;;7.60;;
6354;SDS011;3210;48.708;9.030;2023-08-20T01:36:23;16.87;;;8.27;;
6354;SDS011;3210;48.708;9.030;2023-08-20T01:38:50;10.17;;;7.63;;
6354;SDS011;3210;48.708;9.030;2023-08-20T01:41:16;18.60;;;8.40;;
6354;SDS011;3210;48.708;9.030;2023-08-20T01:43:43;8.03;;;7.27;;
6354;SDS011;3210;48.708;9.030;2023-08-20T01:46:11;10.70;;;8.33;;
6354;SDS011;3210;48.708;9.030;2023-08-20T01:48:38;14.30;;;8.00;;
6354;SDS011;3210;48.708;9.030;2023-08-20T01:51:05;8.43;;;7.57;;
6354;SDS011;3210;48.708;9.030;2023-08-20T01:53:32;11.43;;;8.90;;
6354;SDS011;3210;48.708;9.030;2023-08-20T01:55:59;10.03;;;8.13;;
6354;SDS011;3210;48.708;9.030;2023-08-20T01:58:26;10.30;;;8.00;;
6354;SDS011;3210;48.708;9.030;2023-08-20T02:00:52;8.60;;;7.70;;
6354;SDS011;3210;48.708;9.030;2023-08-20T02:03:20;11.33;;;7.60;;
6354;SDS011;3210;48.708;9.030;2023-08-20T02:05:47;8.37;;;7.53;;
6354;SDS011;3210;48.708;9.030;2023-08-20T02:08:14;11.03;;;8.93;;
6354;SDS011;3210;48.708;9.030;2023-08-20T02:10:41;13.67;;;8.70;;
6354;SDS011;3210;48.708;9.030;2023-08-20T02:13:08;27.87;;;9.40;;
6354;SDS011;3210;48.708;9.030;2023-08-20T02:15:34;14.47;;;8.23;;
6354;SDS011;3210;48.708;9.030;2023-08-20T02:18:01;10.00;;;7.93;;
6354;SDS011;3210;48.708;9.030;2023-08-20T02:20:30;11.10;;;8.00;;
6354;SDS011;3210;48.708;9.030;2023-08-20T02:22:56;11.03;;;8.53;;
6354;SDS011;3210;48.708;9.030;2023-08-20T02:25:23;9.53;;;8.53;;
6354;SDS011;3210;48.708;9.030;2023-08-20T02:27:50;11.10;;;7.90;;
6354;SDS011;3210;48.708;9.030;2023-08-20T02:30:17;8.17;;;7.37;;
6354;SDS011;3210;48.708;9.030;2023-08-20T02:32:44;9.30;;;7.60;;
6354;SDS011;3210;48.708;9.030;2023-08-20T02:35:11;14.10;;;8.07;;
6354;SDS011;3210;48.708;9.030;2023-08-20T02:37:42;13.10;;;7.80;;
6354;SDS011;3210;48.708;9.030;2023-08-20T02:40:09;10.67;;;8.80;;
6354;SDS011;3210;48.708;9.030;2023-08-20T02:42:36;8.90;;;8.03;;
6354;SDS011;3210;48.708;9.030;2023-08-20T02:45:03;9.30;;;7.97;;
6354;SDS011;3210;48.708;9.030;2023-08-20T02:47:31;12.57;;;8.77;;
6354;SDS011;3210;48.708;9.030;2023-08-20T02:49:58;16.30;;;9.20;;
6354;SDS011;3210;48.708;9.030;2023-08-20T02:52:24;9.00;;;8.10;;
6354;SDS011;3210;48.708;9.030;2023-08-20T02:54:53;9.40;;;8.17;;
6354;SDS011;3210;48.708;9.030;2023-08-20T02:57:19;14.33;;;8.30;;
6354;SDS011;3210;48.708;9.030;2023-08-20T02:59:46;12.03;;;9.70;;
6354;SDS011;3210;48.708;9.030;2023-08-20T03:02:13;11.03;;;9.30;;
6354;SDS011;3210;48.708;9.030;2023-08-20T03:04:40;10.10;;;8.73;;
6354;SDS011;3210;48.708;9.030;2023-08-20T03:07:06;8.80;;;8.00;;
6354;SDS011;3210;48.708;9.030;2023-08-20T03:09:33;10.67;;;9.20;;
6354;SDS011;3210;48.708;9.030;2023-08-20T03:12:01;13.23;;;9.00;;
6354;SDS011;3210;48.708;9.030;2023-08-20T03:14:28;21.13;;;8.70;;
6354;SDS011;3210;48.708;9.030;2023-08-20T03:16:55;10.87;;;8.57;;
6354;SDS011;3210;48.708;9.030;2023-08-20T03:19:22;9.50;;;7.90;;
6354;SDS011;3210;48.708;9.030;2023-08-20T03:21:49;12.53;;;8.43;;
6354;SDS011;3210;48.708;9.030;2023-08-20T03:24:15;10.23;;;7.57;;
6354;SDS011;3210;48.708;9.030;2023-08-20T03:26:42;10.63;;;8.20;;
6354;SDS011;3210;48.708;9.030;2023-08-20T03:29:12;12.30;;;8.03;;
6354;SDS011;3210;48.708;9.030;2023-08-20T03:31:39;11.40;;;8.70;;
6354;SDS011;3210;48.708;9.030;2023-08-20T03:34:06;14.17;;;7.27;;
6354;SDS011;3210;48.708;9.030;2023-08-20T03:36:34;16.07;;;9.80;;
6354;SDS011;3210;48.708;9.030;2023-08-20T03:39:01;8.97;;;7.73;;
6354;SDS011;3210;48.708;9.030;2023-08-20T03:41:28;10.40;;;8.53;;
6354;SDS011;3210;48.708;9.030;2023-08-20T03:43:55;9.83;;;8.77;;
6354;SDS011;3210;48.708;9.030;2023-08-20T03:46:23;9.57;;;8.60;;
6354;SDS011;3210;48.708;9.030;2023-08-20T03:48:50;13.30;;;8.40;;
6354;SDS011;3210;48.708;9.030;2023-08-20T03:51:17;16.70;;;9.67;;
6354;SDS011;3210;48.708;9.030;2023-08-20T03:53:43;14.10;;;8.23;;
6354;SDS011;3210;48.708;9.030;2023-08-20T03:56:10;13.87;;;9.50;;
6354;SDS011;3210;48.708;9.030;2023-08-20T03:58:37;10.10;;;8.90;;
6354;SDS011;3210;48.708;9.030;2023-08-20T04:01:05;13.00;;;8.60;;
6354;SDS011;3210;48.708;9.030;2023-08-20T04:03:33;8.67;;;7.87;;
6354;SDS011;3210;48.708;9.030;2023-08-20T04:06:00;13.83;;;7.57;;
6354;SDS011;3210;48.708;9.030;2023-08-20T04:08:26;8.47;;;7.73;;
6354;SDS011;3210;48.708;9.030;2023-08-20T04:10:54;19.50;;;9.30;;
6354;SDS011;3210;48.708;9.030;2023-08-20T04:13:21;10.20;;;8.13;;
6354;SDS011;3210;48.708;9.030;2023-08-20T04:15:48;9.13;;;8.13;;
6354;SDS011;3210;48.708;9.030;2023-08-20T04:18:14;12.37;;;8.80;;
6354;SDS011;3210;48.708;9.030;2023-08-20T04:20:42;9.47;;;8.47;;
6354;SDS011;3210;48.708;9.030;2023-08-20T04:23:09;9.73;;;8.90;;
6354;SDS011;3210;48.708;9.030;2023-08-20T04:25:36;12.60;;;9.40;;
6354;SDS011;3210;48.708;9.030;2023-08-20T04:28:03;25.47;;;8.80;;
6354;SDS011;3210;48.708;9.030;2023-08-20T04:30:30;9.27;;;8.20;;
6354;SDS011;3210;48.708;9.030;2023-08-20T04:32:57;10.50;;;8.60;;
6354;SDS011;3210;48.708;9.030;2023-08-20T04:35:24;12.73;;;9.20;;
6354;SDS011;3210;48.708;9.030;2023-08-20T04:37:52;11.57;;;9.27;;
6354;SDS011;3210;48.708;9.030;2023-08-20T04:40:18;11.70;;;9.27;;
6354;SDS011;3210;48.708;9.030;2023-08-20T04:42:45;13.90;;;8.10;;
6354;SDS011;3210;48.708;9.030;2023-08-20T04:45:12;11.70;;;8.07;;
6354;SDS011;3210;48.708;9.030;2023-08-20T04:47:39;11.40;;;8.53;;
6354;SDS011;3210;48.708;9.030;2023-08-20T04:50:06;8.83;;;8.03;;
6354;SDS011;3210;48.708;9.030;2023-08-20T04:52:33;12.37;;;8.23;;
6354;SDS011;3210;48.708;9.030;2023-08-20T04:55:01;12.87;;;9.13;;
6354;SDS011;3210;48.708;9.030;2023-08-20T04:57:29;11.13;;;8.20;;
6354;SDS011;3210;48.708;9.030;2023-08-20T04:59:56;17.57;;;8.63;;
6354;SDS011;3210;48.708;9.030;2023-08-20T05:02:22;10.30;;;7.53;;
6354;SDS011;3210;48.708;9.030;2023-08-20T05:04:49;8.87;;;7.97;;
6354;SDS011;3210;48.708;9.030;2023-08-20T05:07:16;12.40;;;7.83;;
6354;SDS011;3210;48.708;9.030;2023-08-20T05:09:43;8.70;;;7.90;;
6354;SDS011;3210;48.708;9.030;2023-08-20T05:12:11;14.67;;;9.73;;
6354;SDS011;3210;48.708;9.030;2023-08-20T05:14:38;14.40;;;9.00;;
6354;SDS011;3210;48.708;9.030;2023-08-20T05:17:05;16.40;;;9.30;;
6354;SDS011;3210;48.708;9.030;2023-08-20T05:19:31;12.00;;;10.00;;
6354;SDS011;3210;48.708;9.030;2023-08-20T05:21:58;11.37;;;9.87;;
6354;SDS011;3210;48.708;9.030;2023-08-20T05:24:25;13.20;;;9.47;;
6354;SDS011;3210;48.708;9.030;2023-08-20T05:27:03;11.70;;;9.50;;
6354;SDS011;3210;48.708;9.030;2023-08-20T05:29:32;10.10;;;9.20;;
6354;SDS011;3210;48.708;9.030;2023-08-20T05:32:01;9.40;;;8.10;;
6354;SDS011;3210;48.708;9.030;2023-08-20T05:34:28;9.97;;;8.97;;
6354;SDS011;3210;48.708;9.030;2023-08-20T05:36:54;12.80;;;9.10;;
6354;SDS011;3210;48.708;9.030;2023-08-20T05:39:21;9.57;;;8.60;;
6354;SDS011;3210;48.708;9.030;2023-08-20T05:41:48;11.97;;;9.63;;
6354;SDS011;3210;48.708;9.030;2023-08-20T05:44:15;12.70;;;8.63;;
6354;SDS011;3210;48.708;9.030;2023-08-20T05:46:44;12.53;;;8.23;;
6354;SDS011;3210;48.708;9.030;2023-08-20T05:49:11;16.80;;;8.80;;
6354;SDS011;3210;48.708;9.030;2023-08-20T05:51:38;12.53;;;9.17;;
6354;SDS011;3210;48.708;9.030;2023-08-20T05:54:05;16.80;;;8.90;;
6354;SDS011;3210;48.708;9.030;2023-08-20T05:56:32;13.07;;;9.23;;
6354;SDS011;3210;48.708;9.030;2023-08-20T05:58:58;16.93;;;9.60;;
6354;SDS011;3210;48.708;9.030;2023-08-20T06:01:25;15.70;;;8.83;;
6354;SDS011;3210;48.708;9.030;2023-08-20T06:03:53;12.63;;;9.27;;
6354;SDS011;3210;48.708;9.030;2023-08-20T06:06:20;12.07;;;9.23;;
6354;SDS011;3210;48.708;9.030;2023-08-20T06:08:47;10.60;;;9.40;;
6354;SDS011;3210;48.708;9.030;2023-08-20T06:11:14;13.23;;;8.13;;
6354;SDS011;3210;48.708;9.030;2023-08-20T06:13:41;17.67;;;9.90;;
6354;SDS011;3210;48.708;9.030;2023-08-20T06:16:07;13.03;;;9.00;;
6354;SDS011;3210;48.708;9.030;2023-08-20T06:18:34;11.57;;;8.80;;
6354;SDS011;3210;48.708;9.030;2023-08-20T06:21:03;16.13;;;8.67;;
6354;SDS011;3210;48.708;9.030;2023-08-20T06:23:30;10.73;;;8.87;;
6354;SDS011;3210;48.708;9.030;2023-08-20T06:25:57;14.80;;;10.33;;
6354;SDS011;3210;48.708;9.030;2023-08-20T06:28:23;9.57;;;8.67;;
6354;SDS011;3210;48.708;9.030;2023-08-20T06:30:50;14.90;;;10.13;;
6354;SDS011;3210;48.708;9.030;2023-08-20T06:33:17;11.93;;;9.30;;
6354;SDS011;3210;48.708;9.030;2023-08-20T06:35:43;19.03;;;9.83;;
6354;SDS011;3210;48.708;9.030;2023-08-20T06:38:12;12.30;;;9.67;;
6354;SDS011;3210;48.708;9.030;2023-08-20T06:40:38;13.43;;;9.57;;
6354;SDS011;3210;48.708;9.030;2023-08-20T06:43:05;19.63;;;11.17;;
6354;SDS011;3210;48.708;9.030;2023-08-20T06:45:32;16.23;;;9.50;;
6354;SDS011;3210;48.708;9.030;2023-08-20T06:47:58;18.03;;;11.13;;
6354;SDS011;3210;48.708;9.030;2023-08-20T06:50:25;11.70;;;9.90;;
6354;SDS011;3210;48.708;9.030;2023-08-20T06:52:52;10.77;;;9.13;;
6354;SDS011;3210;48.708;9.030;2023-08-20T06:55:20;12.40;;;10.03;;
6354;SDS011;3210;48.708;9.030;2023-08-20T06:57:47;15.20;;;10.03;;
6354;SDS011;3210;48.708;9.030;2023-08-20T07:00:14;15.90;;;9.70;;
6354;SDS011;3210;48.708;9.030;2023-08-20T07:02:41;9.93;;;8.90;;
6354;SDS011;3210;48.708;9.030;2023-08-20T07:05:08;11.10;;;8.70;;
6354;SDS011;3210;48.708;9.030;2023-08-20T07:07:35;17.43;;;10.03;;
6354;SDS011;3210;48.708;9.030;2023-08-20T07:10:02;15.57;;;10.60;;
6354;SDS011;3210;48.708;9.030;2023-08-20T07:12:31;13.37;;;9.73;;
6354;SDS011;3210;48.708;9.030;2023-08-20T07:14:58;16.13;;;9.43;;
6354;SDS011;3210;48.708;9.030;2023-08-20T07:17:25;15.53;;;9.33;;
6354;SDS011;3210;48.708;9.030;2023-08-20T07:19:52;12.63;;;9.40;;
6354;SDS011;3210;48.708;9.030;2023-08-20T07:22:19;11.27;;;9.17;;
6354;SDS011;3210;48.708;9.030;2023-08-20T07:24:46;11.23;;;9.40;;
6354;SDS011;3210;48.708;9.030;2023-08-20T07:27:12;11.50;;;8.50;;
6354;SDS011;3210;48.708;9.030;2023-08-20T07:29:41;13.63;;;9.60;;
6354;SDS011;3210;48.708;9.030;2023-08-20T07:32:07;11.97;;;8.93;;
6354;SDS011;3210;48.708;9.030;2023-08-20T07:34:34;17.00;;;10.37;;
6354;SDS011;3210;48.708;9.030;2023-08-20T07:37:01;15.57;;;8.93;;
6354;SDS011;3210;48.708;9.030;2023-08-20T07:39:28;17.27;;;9.20;;
6354;SDS011;3210;48.708;9.030;2023-08-20T07:41:55;12.90;;;9.13;;
6354;SDS011;3210;48.708;9.030;2023-08-20T07:44:22;13.53;;;8.30;;
6354;SDS011;3210;48.708;9.030;2023-08-20T07:46:50;10.03;;;9.00;;
6354;SDS011;3210;48.708;9.030;2023-08-20T07:49:17;13.27;;;8.70;;
6354;SDS011;3210;48.708;9.030;2023-08-20T07:51:44;11.40;;;8.80;;
6354;SDS011;3210;48.708;9.030;2023-08-20T07:54:10;16.10;;;8.63;;
6354;SDS011;3210;48.708;9.030;2023-08-20T07:56:37;10.63;;;7.50;;
6354;SDS011;3210;48.708;9.030;2023-08-20T07:59:04;10.80;;;8.10;;
6354;SDS011;3210;48.708;9.030;2023-08-20T08:01:31;11.30;;;8.40;;
6354;SDS011;3210;48.708;9.030;2023-08-20T08:03:59;8.77;;;7.53;;
6354;SDS011;3210;48.708;9.030;2023-08-20T08:06:27;13.30;;;7.90;;
6354;SDS011;3210;48.708;9.030;2023-08-20T08:08:54;13.57;;;8.33;;
6354;SDS011;3210;48.708;9.030;2023-08-20T08:11:21;12.00;;;7.65;;
6354;SDS011;3210;48.708;9.030;2023-08-20T08:13:49;11.37;;;8.80;;
6354;SDS011;3210;48.708;9.030;2023-08-20T08:16:16;13.32;;;6.82;;
6354;SDS011;3210;48.708;9.030;2023-08-20T08:18:42;7.75;;;6.72;;
6354;SDS011;3210;48.708;9.030;2023-08-20T08:21:10;12.80;;;8.10;;
6354;SDS011;3210;48.708;9.030;2023-08-20T08:23:37;9.20;;;6.97;;
6354;SDS011;3210;48.708;9.030;2023-08-20T08:26:04;10.43;;;7.60;;
6354;SDS011;3210;48.708;9.030;2023-08-20T08:28:31;16.45;;;8.93;;
6354;SDS011;3210;48.708;9.030;2023-08-20T08:30:57;14.80;;;8.10;;
6354;SDS011;3210;48.708;9.030;2023-08-20T08:33:24;12.70;;;7.30;;
6354;SDS011;3210;48.708;9.030;2023-08-20T08:35:51;10.50;;;7.20;;
6354;SDS011;3210;48.708;9.030;2023-08-20T08:38:19;9.50;;;7.05;;
6354;SDS011;3210;48.708;9.030;2023-08-20T08:40:46;7.55;;;6.85;;
6354;SDS011;3210;48.708;9.030;2023-08-20T08:43:14;13.05;;;7.18;;
6354;SDS011;3210;48.708;9.030;2023-08-20T08:45:43;14.00;;;7.20;;
6354;SDS011;3210;48.708;9.030;2023-08-20T08:48:13;9.20;;;7.32;;
6354;SDS011;3210;48.708;9.030;2023-08-20T08:50:40;18.02;;;8.45;;
6354;SDS011;3210;48.708;9.030;2023-08-20T08:53:07;8.02;;;7.10;;
6354;SDS011;3210;48.708;9.030;2023-08-20T08:55:36;9.40;;;7.80;;
6354;SDS011;3210;48.708;9.030;2023-08-20T08:58:03;9.75;;;7.35;;
6354;SDS011;3210;48.708;9.030;2023-08-20T09:00:30;10.48;;;6.20;;
6354;SDS011;3210;48.708;9.030;2023-08-20T09:02:57;12.90;;;6.43;;
6354;SDS011;3210;48.708;9.030;2023-08-20T09:05:24;12.82;;;6.80;;
6354;SDS011;3210;48.708;9.030;2023-08-20T09:07:55;9.68;;;6.43;;
6354;SDS011;3210;48.708;9.030;2023-08-20T09:10:25;18.42;;;6.13;;
6354;SDS011;3210;48.708;9.030;2023-08-20T09:12:55;14.45;;;6.38;;
6354;SDS011;3210;48.708;9.030;2023-08-20T09:15:31;6.57;;;5.55;;
6354;SDS011;3210;48.708;9.030;2023-08-20T09:18:00;8.50;;;6.35;;
6354;SDS011;3210;48.708;9.030;2023-08-20T09:20:33;8.45;;;6.30;;
6354;SDS011;3210;48.708;9.030;2023-08-20T09:23:01;7.88;;;5.75;;
6354;SDS011;3210;48.708;9.030;2023-08-20T09:25:27;8.02;;;6.70;;
6354;SDS011;3210;48.708;9.030;2023-08-20T09:27:56;10.73;;;6.78;;
6354;SDS011;3210;48.708;9.030;2023-08-20T09:30:23;10.55;;;6.88;;
6354;SDS011;3210;48.708;9.030;2023-08-20T09:33:02;8.63;;;6.28;;
6354;SDS011;3210;48.708;9.030;2023-08-20T09:35:30;7.90;;;6.22;;
6354;SDS011;3210;48.708;9.030;2023-08-20T09:37:58;12.52;;;5.80;;
6354;SDS011;3210;48.708;9.030;2023-08-20T09:40:26;7.82;;;5.97;;
6354;SDS011;3210;48.708;9.030;2023-08-20T09:42:54;8.52;;;5.60;;
6354;SDS011;3210;48.708;9.030;2023-08-20T09:45:22;12.57;;;6.75;;
6354;SDS011;3210;48.708;9.030;2023-08-20T09:47:54;8.45;;;7.15;;
6354;SDS011;3210;48.708;9.030;2023-08-20T09:50:21;7.10;;;6.10;;
6354;SDS011;3210;48.708;9.030;2023-08-20T09:52:52;9.07;;;6.53;;
6354;SDS011;3210;48.708;9.030;2023-08-20T09:55:26;8.38;;;5.95;;
6354;SDS011;3210;48.708;9.030;2023-08-20T09:57:57;12.38;;;6.93;;
6354;SDS011;3210;48.708;9.030;2023-08-20T10:00:25;9.25;;;6.10;;
6354;SDS011;3210;48.708;9.030;2023-08-20T10:02:52;6.78;;;5.72;;
6354;SDS011;3210;48.708;9.030;2023-08-20T10:05:20;13.68;;;6.38;;
6354;SDS011;3210;48.708;9.030;2023-08-20T10:07:49;11.60;;;5.47;;
6354;SDS011;3210;48.708;9.030;2023-08-20T10:10:16;11.57;;;5.75;;
6354;SDS011;3210;48.708;9.030;2023-08-20T10:12:44;7.32;;;5.18;;
6354;SDS011;3210;48.708;9.030;2023-08-20T10:15:14;10.00;;;6.00;;
6354;SDS011;3210;48.708;9.030;2023-08-20T10:17:42;5.72;;;5.22;;
6354;SDS011;3210;48.708;9.030;2023-08-20T10:20:12;11.75;;;5.70;;
6354;SDS011;3210;48.708;9.030;2023-08-20T10:22:41;10.98;;;6.03;;
6354;SDS011;3210;48.708;9.030;2023-08-20T10:25:09;5.90;;;5.30;;
6354;SDS011;3210;48.708;9.030;2023-08-20T10:27:38;6.55;;;5.78;;
6354;SDS011;3210;48.708;9.030;2023-08-20T10:30:08;6.63;;;5.97;;
6354;SDS011;3210;48.708;9.030;2023-08-20T10:32:45;7.30;;;5.68;;
6354;SDS011;3210;48.708;9.030;2023-08-20T10:35:14;11.52;;;5.75;;
6354;SDS011;3210;48.708;9.030;2023-08-20T10:46:07;7.22;;;6.05;;
6354;SDS011;3210;48.708;9.030;2023-08-20T10:48:40;11.57;;;6.90;;
6354;SDS011;3210;48.708;9.030;2023-08-20T10:51:11;7.80;;;5.72;;
6354;SDS011;3210;48.708;9.030;2023-08-20T10:53:39;8.65;;;5.97;;
6354;SDS011;3210;48.708;9.030;2023-08-20T10:56:10;7.50;;;6.30;;
6354;SDS011;3210;48.708;9.030;2023-08-20T10:58:40;8.45;;;6.32;;
6354;SDS011;3210;48.708;9.030;2023-08-20T11:01:14;13.32;;;5.93;;
6354;SDS011;3210;48.708;9.030;2023-08-20T11:03:44;6.65;;;5.60;;
6354;SDS011;3210;48.708;9.030;2023-08-20T11:06:11;6.80;;;5.20;;
6354;SDS011;3210;48.708;9.030;2023-08-20T11:08:38;9.77;;;6.25;;
6354;SDS011;3210;48.708;9.030;2023-08-20T11:11:06;10.35;;;5.72;;
6354;SDS011;3210;48.708;9.030;2023-08-20T11:13:34;10.07;;;5.70;;
6354;SDS011;3210;48.708;9.030;2023-08-20T11:16:01;10.25;;;5.53;;
6354;SDS011;3210;48.708;9.030;2023-08-20T11:18:30;8.07;;;7.28;;
6354;SDS011;3210;48.708;9.030;2023-08-20T11:20:59;6.38;;;5.78;;
6354;SDS011;3210;48.708;9.030;2023-08-20T11:23:26;13.20;;;6.10;;
6354;SDS011;3210;48.708;9.030;2023-08-20T11:25:54;6.75;;;5.63;;
6354;SDS011;3210;48.708;9.030;2023-08-20T11:28:22;9.20;;;6.38;;
6354;SDS011;3210;48.708;9.030;2023-08-20T11:30:49;8.20;;;5.53;;
6354;SDS011;3210;48.708;9.030;2023-08-20T11:33:16;9.85;;;6.15;;
6354;SDS011;3210;48.708;9.030;2023-08-20T11:35:43;11.90;;;6.75;;
6354;SDS011;3210;48.708;9.030;2023-08-20T11:38:11;6.47;;;5.88;;
6354;SDS011;3210;48.708;9.030;2023-08-20T11:40:39;7.32;;;6.05;;
6354;SDS011;3210;48.708;9.030;2023-08-20T11:43:06;7.95;;;6.47;;
6354;SDS011;3210;48.708;9.030;2023-08-20T11:45:33;7.70;;;5.43;;
6354;SDS011;3210;48.708;9.030;2023-08-20T11:48:10;7.30;;;5.50;;
6354;SDS011;3210;48.708;9.030;2023-08-20T11:50:37;12.85;;;6.60;;
6354;SDS011;3210;48.708;9.030;2023-08-20T11:53:05;16.00;;;6.18;;
6354;SDS011;3210;48.708;9.030;2023-08-20T11:55:34;13.70;;;7.22;;
6354;SDS011;3210;48.708;9.030;2023-08-20T11:58:01;17.00;;;6.80;;
6354;SDS011;3210;48.708;9.030;2023-08-20T12:00:29;10.02;;;7.10;;
6354;SDS011;3210;48.708;9.030;2023-08-20T12:02:57;12.43;;;6.03;;
6354;SDS011;3210;48.708;9.030;2023-08-20T12:05:26;9.63;;;6.60;;
6354;SDS011;3210;48.708;9.030;2023-08-20T12:07:56;11.73;;;5.85;;
6354;SDS011;3210;48.708;9.030;2023-08-20T12:10:24;7.25;;;5.72;;
6354;SDS011;3210;48.708;9.030;2023-08-20T12:12:53;7.38;;;6.63;;
6354;SDS011;3210;48.708;9.030;2023-08-20T12:15:21;12.23;;;6.97;;
6354;SDS011;3210;48.708;9.030;2023-08-20T12:17:58;11.27;;;5.72;;
6354;SDS011;3210;48.708;9.030;2023-08-20T12:20:27;8.73;;;5.30;;
6354;SDS011;3210;48.708;9.030;2023-08-20T12:22:57;10.07;;;6.18;;
6354;SDS011;3210;48.708;9.030;2023-08-20T12:25:25;7.07;;;6.03;;
6354;SDS011;3210;48.708;9.030;2023-08-20T12:27:53;11.68;;;5.88;;
6354;SDS011;3210;48.708;9.030;2023-08-20T12:30:21;9.10;;;5.65;;
6354;SDS011;3210;48.708;9.030;2023-08-20T12:32:47;9.52;;;5.88;;
6354;SDS011;3210;48.708;9.030;2023-08-20T12:35:14;9.73;;;5.43;;
6354;SDS011;3210;48.708;9.030;2023-08-20T12:37:41;6.30;;;5.70;;
6354;SDS011;3210;48.708;9.030;2023-08-20T12:40:08;7.75;;;6.70;;
6354;SDS011;3210;48.708;9.030;2023-08-20T12:42:37;8.35;;;6.43;;
6354;SDS011;3210;48.708;9.030;2023-08-20T12:45:07;7.82;;;5.22;;
6354;SDS011;3210;48.708;9.030;2023-08-20T12:47:35;15.73;;;6.45;;
6354;SDS011;3210;48.708;9.030;2023-08-20T12:50:02;10.73;;;6.18;;
6354;SDS011;3210;48.708;9.030;2023-08-20T12:52:30;9.93;;;5.68;;
6354;SDS011;3210;48.708;9.030;2023-08-20T12:54:57;8.55;;;6.65;;
6354;SDS011;3210;48.708;9.030;2023-08-20T12:57:24;9.30;;;6.75;;
6354;SDS011;3210;48.708;9.030;2023-08-20T12:59:51;6.18;;;5.53;;
6354;SDS011;3210;48.708;9.030;2023-08-20T13:02:19;19.35;;;6.15;;
6354;SDS011;3210;48.708;9.030;2023-08-20T13:04:46;11.25;;;5.47;;
6354;SDS011;3210;48.708;9.030;2023-08-20T13:07:15;11.73;;;6.65;;
6354;SDS011;3210;48.708;9.030;2023-08-20T13:09:42;9.77;;;6.07;;
6354;SDS011;3210;48.708;9.030;2023-08-20T13:12:10;9.10;;;6.10;;
6354;SDS011;3210;48.708;9.030;2023-08-20T13:14:38;13.82;;;5.80;;
6354;SDS011;3210;48.708;9.030;2023-08-20T13:17:06;6.95;;;5.20;;
6354;SDS011;3210;48.708;9.030;2023-08-20T13:19:36;7.95;;;5.45;;
6354;SDS011;3210;48.708;9.030;2023-08-20T13:22:03;16.23;;;6.07;;
6354;SDS011;3210;48.708;9.030;2023-08-20T13:24:30;5.75;;;5.15;;
6354;SDS011;3210;48.708;9.030;2023-08-20T13:26:56;7.55;;;5.07;;
6354;SDS011;3210;48.708;9.030;2023-08-20T13:29:23;10.55;;;5.82;;
6354;SDS011;3210;48.708;9.030;2023-08-20T13:31:50;12.20;;;6.10;;
6354;SDS011;3210;48.708;9.030;2023-08-20T13:34:17;6.35;;;5.75;;
6354;SDS011;3210;48.708;9.030;2023-08-20T13:36:45;11.00;;;5.90;;
6354;SDS011;3210;48.708;9.030;2023-08-20T13:39:12;6.95;;;5.20;;
6354;SDS011;3210;48.708;9.030;2023-08-20T13:41:39;12.48;;;6.18;;
6354;SDS011;3210;48.708;9.030;2023-08-20T13:44:06;13.68;;;5.65;;
6354;SDS011;3210;48.708;9.030;2023-08-20T13:46:33;13.98;;;6.25;;
6354;SDS011;3210;48.708;9.030;2023-08-20T13:49:00;10.23;;;6.38;;
6354;SDS011;3210;48.708;9.030;2023-08-20T13:51:27;7.60;;;6.65;;
6354;SDS011;3210;48.708;9.030;2023-08-20T13:53:56;8.93;;;5.10;;
6354;SDS011;3210;48.708;9.030;2023-08-20T13:56:23;13.35;;;5.65;;
6354;SDS011;3210;48.708;9.030;2023-08-20T13:58:50;10.63;;;5.28;;
6354;SDS011;3210;48.708;9.030;2023-08-20T14:01:17;6.40;;;5.72;;
6354;SDS011;3210;48.708;9.030;2023-08-20T14:03:44;12.82;;;5.72;;
6354;SDS011;3210;48.708;9.030;2023-08-20T14:06:11;10.77;;;5.75;;
6354;SDS011;3210;48.708;9.030;2023-08-20T14:08:38;6.90;;;6.18;;
6354;SDS011;3210;48.708;9.030;2023-08-20T14:11:06;8.07;;;6.40;;
6354;SDS011;3210;48.708;9.030;2023-08-20T14:13:33;6.15;;;5.28;;
6354;SDS011;3210;48.708;9.030;2023-08-20T14:16:00;10.25;;;6.43;;
6354;SDS011;3210;48.708;9.030;2023-08-20T14:18:27;6.88;;;5.65;;
6354;SDS011;3210;48.708;9.030;2023-08-20T14:20:54;6.20;;;5.60;;
6354;SDS011;3210;48.708;9.030;2023-08-20T14:23:20;9.55;;;5.35;;
6354;SDS011;3210;48.708;9.030;2023-08-20T14:25:47;6.68;;;6.07;;
6354;SDS011;3210;48.708;9.030;2023-08-20T14:28:15;5.88;;;5.28;;
6354;SDS011;3210;48.708;9.030;2023-08-20T14:30:42;8.68;;;5.15;;
6354;SDS011;3210;48.708;9.030;2023-08-20T14:33:09;6.65;;;5.45;;
6354;SDS011;3210;48.708;9.030;2023-08-20T14:35:36;18.33;;;6.20;;
6354;SDS011;3210;48.708;9.030;2023-08-20T14:38:03;11.55;;;5.82;;
6354;SDS011;3210;48.708;9.030;2023-08-20T14:40:30;8.07;;;5.63;;
6354;SDS011;3210;48.708;9.030;2023-08-20T14:42:59;10.30;;;5.78;;
6354;SDS011;3210;48.708;9.030;2023-08-20T14:45:27;9.38;;;5.05;;
6354;SDS011;3210;48.708;9.030;2023-08-20T14:47:54;13.70;;;6.35;;
6354;SDS011;3210;48.708;9.030;2023-08-20T14:50:20;5.65;;;5.20;;
6354;SDS011;3210;48.708;9.030;2023-08-20T14:52:47;5.50;;;5.00;;
6354;SDS011;3210;48.708;9.030;2023-08-20T14:55:17;12.02;;;5.47;;
6354;SDS011;3210;48.708;9.030;2023-08-20T14:57:43;12.90;;;5.60;;
6354;SDS011;3210;48.708;9.030;2023-08-20T15:00:11;7.88;;;4.97;;
6354;SDS011;3210;48.708;9.030;2023-08-20T15:02:40;9.85;;;5.38;;
6354;SDS011;3210;48.708;9.030;2023-08-20T15:05:07;6.00;;;5.35;;
6354;SDS011;3210;48.708;9.030;2023-08-20T15:07:35;5.15;;;3.95;;
6354;SDS011;3210;48.708;9.030;2023-08-20T15:10:02;9.63;;;5.10;;
6354;SDS011;3210;48.708;9.030;2023-08-20T15:12:29;12.55;;;5.25;;
6354;SDS011;3210;48.708;9.030;2023-08-20T15:14:59;6.90;;;5.05;;
6354;SDS011;3210;48.708;9.030;2023-08-20T15:17:26;7.93;;;4.88;;
6354;SDS011;3210;48.708;9.030;2023-08-20T15:19:54;9.27;;;5.03;;
6354;SDS011;3210;48.708;9.030;2023-08-20T15:22:20;7.00;;;5.05;;